sensor_id;sensor_type;location;lat;lon;timestamp;P1;durP1;ratioP1;P2;durP2;ratioP2
4700;SDS011;8724;51.272;6.554;2023-07-20T00:02:01;4.33;;;2.80;;
4700;SDS011;8724;51.272;6.554;2023-07-20T00:04:32;2.57;;;2.37;;
4700;SDS011;8724;51.272;6.554;2023-07-20T00:07:00;5.07;;;3.10;;
4700;SDS011;8724;51.272;6.554;2023-07-20T00:09:30;4.13;;;3.23;;
4700;SDS011;8724;51.272;6.554;2023-07-20T00:11:59;2.93;;;2.60;;
4700;SDS011;8724;51.272;6.554;2023-07-20T00:14:27;4.47;;;3.53;;
4700;SDS011;8724;51.272;6.554;2023-07-20T00:16:56;3.60;;;2.70;;
4700;SDS011;8724;51.272;6.554;2023-07-20T00:19:25;3.70;;;2.17;;
4700;SDS011;8724;51.272;6.554;2023-07-20T00:21:54;3.30;;;2.43;;
4700;SDS011;8724;51.272;6.554;2023-07-20T00:24:23;4.47;;;2.73;;
4700;SDS011;8724;51.272;6.554;2023-07-20T00:26:52;2.77;;;2.50;;
4700;SDS011;8724;51.272;6.554;2023-07-20T00:29:21;8.23;;;2.53;;
4700;SDS011;8724;51.272;6.554;2023-07-20T00:31:49;5.47;;;2.90;;
4700;SDS011;8724;51.272;6.554;2023-07-20T00:34:18;2.70;;;2.50;;
4700;SDS011;8724;51.272;6.554;2023-07-20T00:36:46;5.00;;;2.70;;
4700;SDS011;8724;51.272;6.554;2023-07-20T00:39:16;2.90;;;2.60;;
4700;SDS011;8724;51.272;6.554;2023-07-20T00:41:44;4.77;;;2.93;;
4700;SDS011;8724;51.272;6.554;2023-07-20T00:44:14;3.03;;;2.73;;
4700;SDS011;8724;51.272;6.554;2023-07-20T00:46:42;3.20;;;2.67;;
4700;SDS011;8724;51.272;6.554;2023-07-20T00:49:11;2.70;;;2.50;;
4700;SDS011;8724;51.272;6.554;2023-07-20T00:51:40;2.30;;;2.10;;
4700;SDS011;8724;51.272;6.554;2023-07-20T00:54:09;2.80;;;2.60;;
4700;SDS011;8724;51.272;6.554;2023-07-20T00:56:37;2.20;;;1.93;;
4700;SDS011;8724;51.272;6.554;2023-07-20T00:59:06;3.00;;;2.77;;
4700;SDS011;8724;51.272;6.554;2023-07-20T01:01:36;7.80;;;2.70;;
4700;SDS011;8724;51.272;6.554;2023-07-20T01:04:05;3.13;;;2.60;;
4700;SDS011;8724;51.272;6.554;2023-07-20T01:06:36;6.53;;;2.50;;
4700;SDS011;8724;51.272;6.554;2023-07-20T01:09:12;6.97;;;3.00;;
4700;SDS011;8724;51.272;6.554;2023-07-20T01:11:47;3.00;;;2.80;;
4700;SDS011;8724;51.272;6.554;2023-07-20T01:14:25;8.10;;;3.00;;
4700;SDS011;8724;51.272;6.554;2023-07-20T01:16:55;2.93;;;2.60;;
4700;SDS011;8724;51.272;6.554;2023-07-20T01:19:23;3.60;;;3.30;;
4700;SDS011;8724;51.272;6.554;2023-07-20T01:21:53;3.20;;;2.90;;
4700;SDS011;8724;51.272;6.554;2023-07-20T01:27:44;2.50;;;2.30;;
4700;SDS011;8724;51.272;6.554;2023-07-20T01:30:50;2.80;;;2.43;;
4700;SDS011;8724;51.272;6.554;2023-07-20T01:33:24;4.70;;;2.40;;
4700;SDS011;8724;51.272;6.554;2023-07-20T01:35:54;4.30;;;3.20;;
4700;SDS011;8724;51.272;6.554;2023-07-20T01:38:27;2.73;;;2.53;;
4700;SDS011;8724;51.272;6.554;2023-07-20T01:40:57;4.00;;;2.70;;
4700;SDS011;8724;51.272;6.554;2023-07-20T01:43:25;4.43;;;2.93;;
4700;SDS011;8724;51.272;6.554;2023-07-20T01:45:54;5.60;;;2.77;;
4700;SDS011;8724;51.272;6.554;2023-07-20T01:48:22;2.60;;;2.40;;
4700;SDS011;8724;51.272;6.554;2023-07-20T01:50:53;5.13;;;2.60;;
4700;SDS011;8724;51.272;6.554;2023-07-20T01:53:22;2.87;;;2.37;;
4700;SDS011;8724;51.272;6.554;2023-07-20T01:55:52;3.53;;;2.80;;
4700;SDS011;8724;51.272;6.554;2023-07-20T01:58:21;2.97;;;2.40;;
4700;SDS011;8724;51.272;6.554;2023-07-20T02:00:49;4.60;;;2.67;;
4700;SDS011;8724;51.272;6.554;2023-07-20T02:03:18;3.07;;;2.73;;
4700;SDS011;8724;51.272;6.554;2023-07-20T02:05:51;2.80;;;2.43;;
4700;SDS011;8724;51.272;6.554;2023-07-20T02:08:20;3.07;;;2.77;;
4700;SDS011;8724;51.272;6.554;2023-07-20T02:10:48;5.50;;;2.40;;
4700;SDS011;8724;51.272;6.554;2023-07-20T02:13:17;5.50;;;2.70;;
4700;SDS011;8724;51.272;6.554;2023-07-20T02:15:46;3.63;;;2.30;;
4700;SDS011;8724;51.272;6.554;2023-07-20T02:18:16;2.00;;;1.90;;
4700;SDS011;8724;51.272;6.554;2023-07-20T02:20:44;5.50;;;2.77;;
4700;SDS011;8724;51.272;6.554;2023-07-20T02:23:14;4.93;;;3.20;;
4700;SDS011;8724;51.272;6.554;2023-07-20T02:25:43;2.83;;;2.53;;
4700;SDS011;8724;51.272;6.554;2023-07-20T02:28:15;4.23;;;2.67;;
4700;SDS011;8724;51.272;6.554;2023-07-20T02:30:43;2.83;;;2.53;;
4700;SDS011;8724;51.272;6.554;2023-07-20T02:33:13;4.13;;;2.60;;
4700;SDS011;8724;51.272;6.554;2023-07-20T02:35:41;2.87;;;2.17;;
4700;SDS011;8724;51.272;6.554;2023-07-20T02:38:10;5.80;;;3.37;;
4700;SDS011;8724;51.272;6.554;2023-07-20T02:40:39;3.27;;;2.97;;
4700;SDS011;8724;51.272;6.554;2023-07-20T02:43:08;5.07;;;3.10;;
4700;SDS011;8724;51.272;6.554;2023-07-20T02:45:39;2.43;;;2.23;;
4700;SDS011;8724;51.272;6.554;2023-07-20T02:48:08;4.37;;;3.30;;
4700;SDS011;8724;51.272;6.554;2023-07-20T02:50:37;4.70;;;2.83;;
4700;SDS011;8724;51.272;6.554;2023-07-20T02:53:05;5.70;;;3.20;;
4700;SDS011;8724;51.272;6.554;2023-07-20T02:55:34;4.73;;;2.83;;
4700;SDS011;8724;51.272;6.554;2023-07-20T02:58:04;4.13;;;2.80;;
4700;SDS011;8724;51.272;6.554;2023-07-20T03:00:32;3.47;;;2.63;;
4700;SDS011;8724;51.272;6.554;2023-07-20T03:03:01;4.33;;;3.03;;
4700;SDS011;8724;51.272;6.554;2023-07-20T03:05:29;3.30;;;3.00;;
4700;SDS011;8724;51.272;6.554;2023-07-20T03:07:58;5.40;;;3.00;;
4700;SDS011;8724;51.272;6.554;2023-07-20T03:10:29;4.77;;;2.90;;
4700;SDS011;8724;51.272;6.554;2023-07-20T03:12:58;4.50;;;2.73;;
4700;SDS011;8724;51.272;6.554;2023-07-20T03:15:27;2.80;;;2.50;;
4700;SDS011;8724;51.272;6.554;2023-07-20T03:17:56;2.93;;;2.60;;
4700;SDS011;8724;51.272;6.554;2023-07-20T03:20:27;6.13;;;3.50;;
4700;SDS011;8724;51.272;6.554;2023-07-20T03:22:55;6.90;;;3.70;;
4700;SDS011;8724;51.272;6.554;2023-07-20T03:25:24;3.60;;;3.00;;
4700;SDS011;8724;51.272;6.554;2023-07-20T03:27:54;5.37;;;3.30;;
4700;SDS011;8724;51.272;6.554;2023-07-20T03:30:23;3.63;;;3.33;;
4700;SDS011;8724;51.272;6.554;2023-07-20T03:32:53;3.63;;;3.20;;
4700;SDS011;8724;51.272;6.554;2023-07-20T03:35:22;3.83;;;2.73;;
4700;SDS011;8724;51.272;6.554;2023-07-20T03:37:51;5.53;;;2.57;;
4700;SDS011;8724;51.272;6.554;2023-07-20T03:40:20;5.10;;;3.27;;
4700;SDS011;8724;51.272;6.554;2023-07-20T03:42:51;3.30;;;3.00;;
4700;SDS011;8724;51.272;6.554;2023-07-20T03:45:19;3.83;;;3.43;;
4700;SDS011;8724;51.272;6.554;2023-07-20T03:47:50;5.33;;;3.37;;
4700;SDS011;8724;51.272;6.554;2023-07-20T03:50:20;3.70;;;3.30;;
4700;SDS011;8724;51.272;6.554;2023-07-20T03:52:49;5.97;;;3.80;;
4700;SDS011;8724;51.272;6.554;2023-07-20T03:55:17;4.87;;;4.23;;
4700;SDS011;8724;51.272;6.554;2023-07-20T03:57:46;5.73;;;4.80;;
4700;SDS011;8724;51.272;6.554;2023-07-20T04:00:17;6.70;;;4.60;;
4700;SDS011;8724;51.272;6.554;2023-07-20T04:02:46;6.03;;;4.57;;
4700;SDS011;8724;51.272;6.554;2023-07-20T04:05:15;7.60;;;4.23;;
4700;SDS011;8724;51.272;6.554;2023-07-20T04:07:45;5.50;;;4.57;;
4700;SDS011;8724;51.272;6.554;2023-07-20T04:10:13;5.33;;;4.57;;
4700;SDS011;8724;51.272;6.554;2023-07-20T04:12:42;5.03;;;4.13;;
4700;SDS011;8724;51.272;6.554;2023-07-20T04:15:10;14.23;;;6.33;;
4700;SDS011;8724;51.272;6.554;2023-07-20T04:17:40;8.13;;;5.50;;
4700;SDS011;8724;51.272;6.554;2023-07-20T04:20:08;8.40;;;6.53;;
4700;SDS011;8724;51.272;6.554;2023-07-20T04:22:38;9.70;;;8.70;;
4700;SDS011;8724;51.272;6.554;2023-07-20T04:25:11;8.60;;;7.00;;
4700;SDS011;8724;51.272;6.554;2023-07-20T04:27:40;12.07;;;8.50;;
4700;SDS011;8724;51.272;6.554;2023-07-20T04:30:09;12.37;;;8.60;;
4700;SDS011;8724;51.272;6.554;2023-07-20T04:32:38;8.67;;;7.77;;
4700;SDS011;8724;51.272;6.554;2023-07-20T04:35:16;11.73;;;8.00;;
4700;SDS011;8724;51.272;6.554;2023-07-20T04:37:47;14.83;;;7.80;;
4700;SDS011;8724;51.272;6.554;2023-07-20T04:40:22;9.43;;;8.37;;
4700;SDS011;8724;51.272;6.554;2023-07-20T04:42:50;12.10;;;7.00;;
4700;SDS011;8724;51.272;6.554;2023-07-20T04:45:19;10.60;;;8.07;;
4700;SDS011;8724;51.272;6.554;2023-07-20T04:47:49;16.03;;;8.87;;
4700;SDS011;8724;51.272;6.554;2023-07-20T04:50:19;12.63;;;8.23;;
4700;SDS011;8724;51.272;6.554;2023-07-20T04:52:47;12.07;;;9.60;;
4700;SDS011;8724;51.272;6.554;2023-07-20T04:55:19;13.67;;;9.47;;
4700;SDS011;8724;51.272;6.554;2023-07-20T04:57:49;9.47;;;8.57;;
4700;SDS011;8724;51.272;6.554;2023-07-20T05:00:17;15.60;;;10.10;;
4700;SDS011;8724;51.272;6.554;2023-07-20T05:02:48;11.10;;;7.93;;
4700;SDS011;8724;51.272;6.554;2023-07-20T05:05:18;8.80;;;7.97;;
4700;SDS011;8724;51.272;6.554;2023-07-20T05:07:46;13.60;;;8.47;;
4700;SDS011;8724;51.272;6.554;2023-07-20T05:10:15;8.37;;;6.37;;
4700;SDS011;8724;51.272;6.554;2023-07-20T05:12:44;8.27;;;7.40;;
4700;SDS011;8724;51.272;6.554;2023-07-20T05:15:14;8.83;;;7.60;;
4700;SDS011;8724;51.272;6.554;2023-07-20T05:17:42;11.40;;;8.20;;
4700;SDS011;8724;51.272;6.554;2023-07-20T05:20:11;10.70;;;7.93;;
4700;SDS011;8724;51.272;6.554;2023-07-20T05:22:39;10.03;;;7.70;;
4700;SDS011;8724;51.272;6.554;2023-07-20T05:25:08;10.57;;;7.90;;
4700;SDS011;8724;51.272;6.554;2023-07-20T05:27:38;9.30;;;7.27;;
4700;SDS011;8724;51.272;6.554;2023-07-20T05:30:07;8.07;;;7.00;;
4700;SDS011;8724;51.272;6.554;2023-07-20T05:32:37;12.93;;;8.13;;
4700;SDS011;8724;51.272;6.554;2023-07-20T05:35:06;8.23;;;7.53;;
4700;SDS011;8724;51.272;6.554;2023-07-20T05:37:38;12.03;;;9.40;;
4700;SDS011;8724;51.272;6.554;2023-07-20T05:40:07;12.23;;;9.60;;
4700;SDS011;8724;51.272;6.554;2023-07-20T05:42:38;9.83;;;8.83;;
4700;SDS011;8724;51.272;6.554;2023-07-20T05:45:07;17.43;;;9.70;;
4700;SDS011;8724;51.272;6.554;2023-07-20T05:47:36;13.60;;;8.97;;
4700;SDS011;8724;51.272;6.554;2023-07-20T05:50:06;8.20;;;7.23;;
4700;SDS011;8724;51.272;6.554;2023-07-20T05:52:34;11.20;;;8.03;;
4700;SDS011;8724;51.272;6.554;2023-07-20T05:55:05;10.53;;;8.00;;
4700;SDS011;8724;51.272;6.554;2023-07-20T05:57:34;10.43;;;9.23;;
4700;SDS011;8724;51.272;6.554;2023-07-20T06:00:06;7.37;;;6.67;;
4700;SDS011;8724;51.272;6.554;2023-07-20T06:02:42;12.87;;;9.07;;
4700;SDS011;8724;51.272;6.554;2023-07-20T06:05:11;10.00;;;8.30;;
4700;SDS011;8724;51.272;6.554;2023-07-20T06:07:39;10.63;;;7.23;;
4700;SDS011;8724;51.272;6.554;2023-07-20T06:10:08;9.40;;;7.03;;
4700;SDS011;8724;51.272;6.554;2023-07-20T06:12:36;6.17;;;5.57;;
4700;SDS011;8724;51.272;6.554;2023-07-20T06:15:05;5.93;;;5.33;;
4700;SDS011;8724;51.272;6.554;2023-07-20T06:17:53;5.53;;;4.93;;
4700;SDS011;8724;51.272;6.554;2023-07-20T06:20:22;7.97;;;5.80;;
4700;SDS011;8724;51.272;6.554;2023-07-20T06:22:50;4.77;;;4.30;;
4700;SDS011;8724;51.272;6.554;2023-07-20T06:25:19;6.50;;;5.90;;
4700;SDS011;8724;51.272;6.554;2023-07-20T06:27:49;5.73;;;4.70;;
4700;SDS011;8724;51.272;6.554;2023-07-20T06:30:18;3.80;;;3.50;;
4700;SDS011;8724;51.272;6.554;2023-07-20T06:32:46;4.33;;;3.77;;
4700;SDS011;8724;51.272;6.554;2023-07-20T06:35:16;4.53;;;4.13;;
4700;SDS011;8724;51.272;6.554;2023-07-20T06:37:45;4.17;;;3.73;;
4700;SDS011;8724;51.272;6.554;2023-07-20T06:40:13;5.07;;;4.37;;
4700;SDS011;8724;51.272;6.554;2023-07-20T06:42:45;4.73;;;4.27;;
4700;SDS011;8724;51.272;6.554;2023-07-20T06:45:16;4.57;;;4.17;;
4700;SDS011;8724;51.272;6.554;2023-07-20T06:47:44;6.30;;;5.70;;
4700;SDS011;8724;51.272;6.554;2023-07-20T06:50:13;8.43;;;6.63;;
4700;SDS011;8724;51.272;6.554;2023-07-20T06:52:45;8.10;;;5.83;;
4700;SDS011;8724;51.272;6.554;2023-07-20T06:55:15;5.33;;;4.83;;
4700;SDS011;8724;51.272;6.554;2023-07-20T06:57:49;4.50;;;3.80;;
4700;SDS011;8724;51.272;6.554;2023-07-20T07:00:24;4.10;;;3.80;;
4700;SDS011;8724;51.272;6.554;2023-07-20T07:02:52;4.53;;;4.03;;
4700;SDS011;8724;51.272;6.554;2023-07-20T07:05:21;3.03;;;2.80;;
4700;SDS011;8724;51.272;6.554;2023-07-20T07:07:51;6.17;;;5.07;;
4700;SDS011;8724;51.272;6.554;2023-07-20T07:10:19;4.43;;;3.47;;
4700;SDS011;8724;51.272;6.554;2023-07-20T07:12:47;4.10;;;3.77;;
4700;SDS011;8724;51.272;6.554;2023-07-20T07:15:16;3.13;;;2.57;;
4700;SDS011;8724;51.272;6.554;2023-07-20T07:17:44;3.60;;;2.90;;
4700;SDS011;8724;51.272;6.554;2023-07-20T07:20:13;3.30;;;3.10;;
4700;SDS011;8724;51.272;6.554;2023-07-20T07:22:44;3.57;;;3.27;;
4700;SDS011;8724;51.272;6.554;2023-07-20T07:25:14;3.10;;;2.80;;
4700;SDS011;8724;51.272;6.554;2023-07-20T07:27:49;2.70;;;2.50;;
4700;SDS011;8724;51.272;6.554;2023-07-20T07:30:19;2.83;;;2.63;;
4700;SDS011;8724;51.272;6.554;2023-07-20T07:32:48;3.67;;;2.87;;
4700;SDS011;8724;51.272;6.554;2023-07-20T07:35:17;2.53;;;2.33;;
4700;SDS011;8724;51.272;6.554;2023-07-20T07:37:46;3.00;;;2.80;;
4700;SDS011;8724;51.272;6.554;2023-07-20T07:40:18;3.40;;;2.33;;
4700;SDS011;8724;51.272;6.554;2023-07-20T07:42:47;2.20;;;2.10;;
4700;SDS011;8724;51.272;6.554;2023-07-20T07:45:15;3.73;;;2.40;;
4700;SDS011;8724;51.272;6.554;2023-07-20T07:47:44;1.33;;;1.20;;
4700;SDS011;8724;51.272;6.554;2023-07-20T07:50:12;1.53;;;1.43;;
4700;SDS011;8724;51.272;6.554;2023-07-20T07:52:41;2.80;;;1.70;;
4700;SDS011;8724;51.272;6.554;2023-07-20T07:55:09;1.40;;;1.30;;
4700;SDS011;8724;51.272;6.554;2023-07-20T07:57:39;1.70;;;1.60;;
4700;SDS011;8724;51.272;6.554;2023-07-20T08:00:08;1.43;;;1.30;;
4700;SDS011;8724;51.272;6.554;2023-07-20T08:02:41;1.70;;;1.40;;
4700;SDS011;8724;51.272;6.554;2023-07-20T08:05:10;1.23;;;1.23;;
4700;SDS011;8724;51.272;6.554;2023-07-20T08:07:39;1.23;;;1.13;;
4700;SDS011;8724;51.272;6.554;2023-07-20T08:10:08;1.50;;;1.40;;
4700;SDS011;8724;51.272;6.554;2023-07-20T08:12:37;2.93;;;1.43;;
4700;SDS011;8724;51.272;6.554;2023-07-20T08:15:10;1.10;;;1.00;;
4700;SDS011;8724;51.272;6.554;2023-07-20T08:17:39;1.53;;;1.43;;
4700;SDS011;8724;51.272;6.554;2023-07-20T08:20:09;1.60;;;1.50;;
4700;SDS011;8724;51.272;6.554;2023-07-20T08:22:38;1.17;;;1.10;;
4700;SDS011;8724;51.272;6.554;2023-07-20T08:25:07;1.40;;;1.30;;
4700;SDS011;8724;51.272;6.554;2023-07-20T08:27:36;2.50;;;1.33;;
4700;SDS011;8724;51.272;6.554;2023-07-20T08:30:06;1.40;;;1.30;;
4700;SDS011;8724;51.272;6.554;2023-07-20T08:32:37;1.40;;;0.97;;
4700;SDS011;8724;51.272;6.554;2023-07-20T08:35:06;1.10;;;1.00;;
4700;SDS011;8724;51.272;6.554;2023-07-20T08:37:35;0.80;;;0.77;;
4700;SDS011;8724;51.272;6.554;2023-07-20T08:40:04;0.70;;;0.70;;
4700;SDS011;8724;51.272;6.554;2023-07-20T08:42:36;1.53;;;1.20;;
4700;SDS011;8724;51.272;6.554;2023-07-20T08:45:08;1.80;;;0.87;;
4700;SDS011;8724;51.272;6.554;2023-07-20T08:47:40;1.20;;;1.00;;
4700;SDS011;8724;51.272;6.554;2023-07-20T08:50:11;0.80;;;0.80;;
4700;SDS011;8724;51.272;6.554;2023-07-20T08:52:41;0.93;;;0.93;;
4700;SDS011;8724;51.272;6.554;2023-07-20T08:55:10;1.27;;;0.80;;
4700;SDS011;8724;51.272;6.554;2023-07-20T08:57:39;0.83;;;0.83;;
4700;SDS011;8724;51.272;6.554;2023-07-20T09:00:11;0.70;;;0.70;;
4700;SDS011;8724;51.272;6.554;2023-07-20T09:02:41;1.27;;;0.90;;
4700;SDS011;8724;51.272;6.554;2023-07-20T09:05:12;0.80;;;0.80;;
4700;SDS011;8724;51.272;6.554;2023-07-20T09:07:41;0.93;;;0.70;;
4700;SDS011;8724;51.272;6.554;2023-07-20T09:10:10;0.97;;;0.93;;
4700;SDS011;8724;51.272;6.554;2023-07-20T09:12:40;1.03;;;0.87;;
4700;SDS011;8724;51.272;6.554;2023-07-20T09:15:12;2.07;;;1.00;;
4700;SDS011;8724;51.272;6.554;2023-07-20T09:17:44;1.77;;;0.90;;
4700;SDS011;8724;51.272;6.554;2023-07-20T09:20:14;2.00;;;1.00;;
4700;SDS011;8724;51.272;6.554;2023-07-20T09:22:47;0.90;;;0.90;;
4700;SDS011;8724;51.272;6.554;2023-07-20T09:25:16;1.17;;;1.07;;
4700;SDS011;8724;51.272;6.554;2023-07-20T09:27:48;1.23;;;1.17;;
4700;SDS011;8724;51.272;6.554;2023-07-20T09:30:19;1.93;;;1.13;;
4700;SDS011;8724;51.272;6.554;2023-07-20T09:32:56;1.30;;;1.20;;
4700;SDS011;8724;51.272;6.554;2023-07-20T09:35:25;1.60;;;0.90;;
4700;SDS011;8724;51.272;6.554;2023-07-20T09:38:08;1.50;;;0.90;;
4700;SDS011;8724;51.272;6.554;2023-07-20T09:40:40;0.70;;;0.70;;
4700;SDS011;8724;51.272;6.554;2023-07-20T09:43:12;2.10;;;1.00;;
4700;SDS011;8724;51.272;6.554;2023-07-20T09:45:48;1.00;;;0.90;;
4700;SDS011;8724;51.272;6.554;2023-07-20T09:48:23;1.03;;;0.90;;
4700;SDS011;8724;51.272;6.554;2023-07-20T09:50:55;1.40;;;1.30;;
4700;SDS011;8724;51.272;6.554;2023-07-20T09:53:25;1.37;;;1.30;;
4700;SDS011;8724;51.272;6.554;2023-07-20T09:55:53;1.70;;;1.00;;
4700;SDS011;8724;51.272;6.554;2023-07-20T09:58:22;1.10;;;0.93;;
4700;SDS011;8724;51.272;6.554;2023-07-20T10:00:54;1.80;;;1.27;;
4700;SDS011;8724;51.272;6.554;2023-07-20T10:03:27;0.77;;;0.77;;
4700;SDS011;8724;51.272;6.554;2023-07-20T10:06:02;0.90;;;0.80;;
4700;SDS011;8724;51.272;6.554;2023-07-20T10:08:35;1.17;;;1.07;;
4700;SDS011;8724;51.272;6.554;2023-07-20T10:11:11;1.53;;;1.10;;
4700;SDS011;8724;51.272;6.554;2023-07-20T10:13:43;1.03;;;0.93;;
4700;SDS011;8724;51.272;6.554;2023-07-20T10:16:18;1.33;;;0.80;;
4700;SDS011;8724;51.272;6.554;2023-07-20T10:18:51;0.90;;;0.90;;
4700;SDS011;8724;51.272;6.554;2023-07-20T10:21:26;0.97;;;0.97;;
4700;SDS011;8724;51.272;6.554;2023-07-20T10:23:59;1.43;;;0.80;;
4700;SDS011;8724;51.272;6.554;2023-07-20T10:26:29;0.87;;;0.87;;
4700;SDS011;8724;51.272;6.554;2023-07-20T10:29:01;0.90;;;0.90;;
4700;SDS011;8724;51.272;6.554;2023-07-20T10:31:32;1.20;;;1.10;;
4700;SDS011;8724;51.272;6.554;2023-07-20T10:34:02;1.73;;;1.10;;
4700;SDS011;8724;51.272;6.554;2023-07-20T10:36:32;3.43;;;1.20;;
4700;SDS011;8724;51.272;6.554;2023-07-20T10:39:00;2.60;;;0.87;;
4700;SDS011;8724;51.272;6.554;2023-07-20T10:41:29;1.90;;;1.00;;
4700;SDS011;8724;51.272;6.554;2023-07-20T10:44:02;1.63;;;1.23;;
4700;SDS011;8724;51.272;6.554;2023-07-20T10:46:41;1.60;;;1.23;;
4700;SDS011;8724;51.272;6.554;2023-07-20T10:49:12;1.20;;;1.10;;
4700;SDS011;8724;51.272;6.554;2023-07-20T10:51:43;1.10;;;1.00;;
4700;SDS011;8724;51.272;6.554;2023-07-20T10:59:49;1.73;;;1.10;;
4700;SDS011;8724;51.272;6.554;2023-07-20T11:02:19;1.00;;;0.90;;
4700;SDS011;8724;51.272;6.554;2023-07-20T11:04:48;0.97;;;0.97;;
4700;SDS011;8724;51.272;6.554;2023-07-20T11:07:17;1.20;;;0.97;;
4700;SDS011;8724;51.272;6.554;2023-07-20T11:10:12;1.60;;;1.50;;
4700;SDS011;8724;51.272;6.554;2023-07-20T11:15:44;1.53;;;1.20;;
4700;SDS011;8724;51.272;6.554;2023-07-20T11:18:15;0.97;;;0.97;;
4700;SDS011;8724;51.272;6.554;2023-07-20T11:20:49;0.80;;;0.80;;
4700;SDS011;8724;51.272;6.554;2023-07-20T11:23:19;1.43;;;1.03;;
4700;SDS011;8724;51.272;6.554;2023-07-20T11:25:48;0.83;;;0.83;;
4700;SDS011;8724;51.272;6.554;2023-07-20T11:28:18;1.10;;;0.90;;
4700;SDS011;8724;51.272;6.554;2023-07-20T11:30:50;0.83;;;0.77;;
4700;SDS011;8724;51.272;6.554;2023-07-20T11:33:23;0.80;;;0.80;;
4700;SDS011;8724;51.272;6.554;2023-07-20T11:35:51;1.00;;;0.83;;
4700;SDS011;8724;51.272;6.554;2023-07-20T11:38:20;1.90;;;0.83;;
4700;SDS011;8724;51.272;6.554;2023-07-20T11:40:50;0.90;;;0.90;;
4700;SDS011;8724;51.272;6.554;2023-07-20T11:43:19;1.63;;;0.90;;
4700;SDS011;8724;51.272;6.554;2023-07-20T11:45:49;2.00;;;1.07;;
4700;SDS011;8724;51.272;6.554;2023-07-20T11:48:18;0.90;;;0.90;;
4700;SDS011;8724;51.272;6.554;2023-07-20T11:50:48;2.13;;;0.83;;
4700;SDS011;8724;51.272;6.554;2023-07-20T11:53:16;0.93;;;0.87;;
4700;SDS011;8724;51.272;6.554;2023-07-20T11:55:46;0.80;;;0.80;;
4700;SDS011;8724;51.272;6.554;2023-07-20T11:58:14;0.80;;;0.80;;
4700;SDS011;8724;51.272;6.554;2023-07-20T12:00:44;1.00;;;1.00;;
4700;SDS011;8724;51.272;6.554;2023-07-20T12:03:13;2.50;;;1.10;;
4700;SDS011;8724;51.272;6.554;2023-07-20T12:05:42;0.70;;;0.70;;
4700;SDS011;8724;51.272;6.554;2023-07-20T12:08:28;0.80;;;0.80;;
4700;SDS011;8724;51.272;6.554;2023-07-20T12:10:57;1.13;;;0.90;;
4700;SDS011;8724;51.272;6.554;2023-07-20T12:13:35;1.00;;;0.90;;
4700;SDS011;8724;51.272;6.554;2023-07-20T12:16:10;1.47;;;1.03;;
4700;SDS011;8724;51.272;6.554;2023-07-20T12:18:41;1.53;;;1.00;;
4700;SDS011;8724;51.272;6.554;2023-07-20T12:21:10;1.43;;;1.03;;
4700;SDS011;8724;51.272;6.554;2023-07-20T12:23:40;0.90;;;0.90;;
4700;SDS011;8724;51.272;6.554;2023-07-20T12:26:10;0.80;;;0.80;;
4700;SDS011;8724;51.272;6.554;2023-07-20T12:28:39;1.17;;;0.80;;
4700;SDS011;8724;51.272;6.554;2023-07-20T12:31:08;0.70;;;0.70;;
4700;SDS011;8724;51.272;6.554;2023-07-20T12:33:37;3.17;;;1.10;;
4700;SDS011;8724;51.272;6.554;2023-07-20T12:36:05;1.67;;;0.80;;
4700;SDS011;8724;51.272;6.554;2023-07-20T12:38:34;0.97;;;0.83;;
4700;SDS011;8724;51.272;6.554;2023-07-20T12:41:04;0.70;;;0.70;;
4700;SDS011;8724;51.272;6.554;2023-07-20T12:43:32;1.00;;;0.73;;
4700;SDS011;8724;51.272;6.554;2023-07-20T12:46:01;0.90;;;0.90;;
4700;SDS011;8724;51.272;6.554;2023-07-20T12:48:32;1.17;;;1.07;;
4700;SDS011;8724;51.272;6.554;2023-07-20T12:51:01;1.10;;;0.90;;
4700;SDS011;8724;51.272;6.554;2023-07-20T12:53:30;5.33;;;1.00;;
4700;SDS011;8724;51.272;6.554;2023-07-20T12:56:00;1.50;;;1.40;;
4700;SDS011;8724;51.272;6.554;2023-07-20T12:58:50;1.13;;;1.03;;
4700;SDS011;8724;51.272;6.554;2023-07-20T13:01:19;1.27;;;1.17;;
4700;SDS011;8724;51.272;6.554;2023-07-20T13:03:47;2.60;;;1.33;;
4700;SDS011;8724;51.272;6.554;2023-07-20T13:06:36;1.00;;;1.00;;
4700;SDS011;8724;51.272;6.554;2023-07-20T13:09:05;1.10;;;1.00;;
4700;SDS011;8724;51.272;6.554;2023-07-20T13:11:33;2.53;;;1.00;;
4700;SDS011;8724;51.272;6.554;2023-07-20T13:14:03;1.10;;;1.00;;
4700;SDS011;8724;51.272;6.554;2023-07-20T13:16:32;1.37;;;1.27;;
4700;SDS011;8724;51.272;6.554;2023-07-20T13:19:02;0.90;;;0.90;;
4700;SDS011;8724;51.272;6.554;2023-07-20T13:21:30;1.87;;;1.40;;
4700;SDS011;8724;51.272;6.554;2023-07-20T13:23:59;1.00;;;0.90;;
4700;SDS011;8724;51.272;6.554;2023-07-20T13:26:28;3.23;;;1.30;;
4700;SDS011;8724;51.272;6.554;2023-07-20T13:28:56;1.23;;;0.90;;
4700;SDS011;8724;51.272;6.554;2023-07-20T13:31:26;0.97;;;0.77;;
4700;SDS011;8724;51.272;6.554;2023-07-20T13:33:58;1.33;;;1.10;;
4700;SDS011;8724;51.272;6.554;2023-07-20T13:36:29;1.53;;;1.00;;
4700;SDS011;8724;51.272;6.554;2023-07-20T13:38:58;1.33;;;0.97;;
4700;SDS011;8724;51.272;6.554;2023-07-20T13:41:26;1.10;;;1.00;;
4700;SDS011;8724;51.272;6.554;2023-07-20T13:43:56;0.80;;;0.80;;
4700;SDS011;8724;51.272;6.554;2023-07-20T13:46:26;1.27;;;1.00;;
4700;SDS011;8724;51.272;6.554;2023-07-20T13:48:57;2.07;;;0.93;;
4700;SDS011;8724;51.272;6.554;2023-07-20T13:51:26;2.20;;;1.20;;
4700;SDS011;8724;51.272;6.554;2023-07-20T13:53:54;1.10;;;1.00;;
4700;SDS011;8724;51.272;6.554;2023-07-20T13:56:23;1.37;;;0.90;;
4700;SDS011;8724;51.272;6.554;2023-07-20T13:58:52;1.47;;;1.13;;
4700;SDS011;8724;51.272;6.554;2023-07-20T14:01:24;1.27;;;1.17;;
4700;SDS011;8724;51.272;6.554;2023-07-20T14:03:57;0.90;;;0.90;;
4700;SDS011;8724;51.272;6.554;2023-07-20T14:06:31;1.53;;;1.00;;
4700;SDS011;8724;51.272;6.554;2023-07-20T14:09:00;0.80;;;0.80;;
4700;SDS011;8724;51.272;6.554;2023-07-20T14:11:30;0.80;;;0.80;;
4700;SDS011;8724;51.272;6.554;2023-07-20T14:14:01;1.30;;;1.20;;
4700;SDS011;8724;51.272;6.554;2023-07-20T14:16:29;1.33;;;1.00;;
4700;SDS011;8724;51.272;6.554;2023-07-20T14:19:00;2.30;;;0.90;;
4700;SDS011;8724;51.272;6.554;2023-07-20T14:21:31;1.00;;;1.00;;
4700;SDS011;8724;51.272;6.554;2023-07-20T14:24:00;1.30;;;1.03;;
4700;SDS011;8724;51.272;6.554;2023-07-20T14:26:28;0.90;;;0.90;;
4700;SDS011;8724;51.272;6.554;2023-07-20T14:28:59;0.80;;;0.80;;
4700;SDS011;8724;51.272;6.554;2023-07-20T14:31:28;1.33;;;0.87;;
4700;SDS011;8724;51.272;6.554;2023-07-20T14:33:58;3.93;;;1.17;;
4700;SDS011;8724;51.272;6.554;2023-07-20T14:36:28;1.17;;;1.07;;
4700;SDS011;8724;51.272;6.554;2023-07-20T14:39:00;0.93;;;0.93;;
4700;SDS011;8724;51.272;6.554;2023-07-20T14:41:28;0.90;;;0.80;;
4700;SDS011;8724;51.272;6.554;2023-07-20T14:43:57;1.10;;;1.00;;
4700;SDS011;8724;51.272;6.554;2023-07-20T14:46:25;1.10;;;1.00;;
4700;SDS011;8724;51.272;6.554;2023-07-20T14:48:54;2.30;;;1.00;;
4700;SDS011;8724;51.272;6.554;2023-07-20T14:51:23;1.37;;;1.27;;
4700;SDS011;8724;51.272;6.554;2023-07-20T14:54:05;5.23;;;1.67;;
4700;SDS011;8724;51.272;6.554;2023-07-20T14:56:34;1.10;;;1.00;;
4700;SDS011;8724;51.272;6.554;2023-07-20T14:59:04;0.80;;;0.80;;
4700;SDS011;8724;51.272;6.554;2023-07-20T15:01:32;1.07;;;1.00;;
4700;SDS011;8724;51.272;6.554;2023-07-20T15:04:01;2.10;;;0.90;;
4700;SDS011;8724;51.272;6.554;2023-07-20T15:06:29;1.10;;;0.80;;
4700;SDS011;8724;51.272;6.554;2023-07-20T15:08:58;1.20;;;1.03;;
4700;SDS011;8724;51.272;6.554;2023-07-20T15:11:29;1.23;;;1.13;;
4700;SDS011;8724;51.272;6.554;2023-07-20T15:13:57;1.50;;;1.07;;
4700;SDS011;8724;51.272;6.554;2023-07-20T15:16:26;0.80;;;0.80;;
4700;SDS011;8724;51.272;6.554;2023-07-20T15:18:54;1.27;;;0.90;;
4700;SDS011;8724;51.272;6.554;2023-07-20T15:21:23;0.80;;;0.80;;
4700;SDS011;8724;51.272;6.554;2023-07-20T15:23:56;0.90;;;0.90;;
4700;SDS011;8724;51.272;6.554;2023-07-20T15:26:25;2.10;;;1.30;;
4700;SDS011;8724;51.272;6.554;2023-07-20T15:28:55;0.70;;;0.70;;
4700;SDS011;8724;51.272;6.554;2023-07-20T15:31:24;1.23;;;0.90;;
4700;SDS011;8724;51.272;6.554;2023-07-20T15:33:55;0.73;;;0.73;;
4700;SDS011;8724;51.272;6.554;2023-07-20T15:36:24;1.07;;;0.97;;
4700;SDS011;8724;51.272;6.554;2023-07-20T15:38:52;0.70;;;0.70;;
4700;SDS011;8724;51.272;6.554;2023-07-20T15:41:21;0.70;;;0.70;;
4700;SDS011;8724;51.272;6.554;2023-07-20T15:43:50;0.80;;;0.80;;
4700;SDS011;8724;51.272;6.554;2023-07-20T15:49:15;1.60;;;0.97;;